sensor_id;sensor_type;location;lat;lon;timestamp;P1;durP1;ratioP1;P2;durP2;ratioP2
12906;SDS011;6521;50.498;8.474;2023-03-01T00:01:30;13.97;;;9.83;;
12906;SDS011;6521;50.498;8.474;2023-03-01T00:04:01;13.87;;;9.23;;
12906;SDS011;6521;50.498;8.474;2023-03-01T00:06:31;13.83;;;9.90;;
12906;SDS011;6521;50.498;8.474;2023-03-01T00:09:02;13.53;;;10.00;;
12906;SDS011;6521;50.498;8.474;2023-03-01T00:11:34;16.10;;;10.93;;
12906;SDS011;6521;50.498;8.474;2023-03-01T00:14:05;14.77;;;10.53;;
12906;SDS011;6521;50.498;8.474;2023-03-01T00:16:37;15.00;;;9.77;;
12906;SDS011;6521;50.498;8.474;2023-03-01T00:19:14;14.27;;;9.60;;
12906;SDS011;6521;50.498;8.474;2023-03-01T00:21:49;14.50;;;9.67;;
12906;SDS011;6521;50.498;8.474;2023-03-01T00:24:20;14.33;;;9.80;;
12906;SDS011;6521;50.498;8.474;2023-03-01T00:26:54;14.87;;;10.70;;
12906;SDS011;6521;50.498;8.474;2023-03-01T00:29:26;16.43;;;10.20;;
12906;SDS011;6521;50.498;8.474;2023-03-01T00:31:57;15.47;;;10.07;;
12906;SDS011;6521;50.498;8.474;2023-03-01T00:34:28;11.93;;;9.83;;
12906;SDS011;6521;50.498;8.474;2023-03-01T00:36:59;14.17;;;9.77;;
12906;SDS011;6521;50.498;8.474;2023-03-01T00:39:35;11.53;;;9.63;;
12906;SDS011;6521;50.498;8.474;2023-03-01T00:42:06;13.50;;;9.80;;
12906;SDS011;6521;50.498;8.474;2023-03-01T00:44:38;14.43;;;10.17;;
12906;SDS011;6521;50.498;8.474;2023-03-01T00:47:08;14.90;;;9.57;;
12906;SDS011;6521;50.498;8.474;2023-03-01T00:49:39;13.20;;;9.77;;
12906;SDS011;6521;50.498;8.474;2023-03-01T00:52:10;15.37;;;9.97;;
12906;SDS011;6521;50.498;8.474;2023-03-01T00:54:41;16.50;;;9.87;;
12906;SDS011;6521;50.498;8.474;2023-03-01T00:57:12;15.83;;;10.00;;
12906;SDS011;6521;50.498;8.474;2023-03-01T00:59:43;14.73;;;9.83;;
12906;SDS011;6521;50.498;8.474;2023-03-01T01:02:14;15.67;;;10.73;;
12906;SDS011;6521;50.498;8.474;2023-03-01T01:04:45;15.63;;;10.53;;
12906;SDS011;6521;50.498;8.474;2023-03-01T01:07:16;13.70;;;9.93;;
12906;SDS011;6521;50.498;8.474;2023-03-01T01:09:48;13.40;;;10.03;;
12906;SDS011;6521;50.498;8.474;2023-03-01T01:12:18;16.40;;;10.47;;
12906;SDS011;6521;50.498;8.474;2023-03-01T01:14:49;16.47;;;11.03;;
12906;SDS011;6521;50.498;8.474;2023-03-01T01:17:21;16.40;;;11.20;;
12906;SDS011;6521;50.498;8.474;2023-03-01T01:19:52;16.37;;;11.10;;
12906;SDS011;6521;50.498;8.474;2023-03-01T01:22:23;16.47;;;11.57;;
12906;SDS011;6521;50.498;8.474;2023-03-01T01:24:53;20.50;;;10.63;;
12906;SDS011;6521;50.498;8.474;2023-03-01T01:27:24;16.07;;;10.93;;
12906;SDS011;6521;50.498;8.474;2023-03-01T01:29:55;13.93;;;10.77;;
12906;SDS011;6521;50.498;8.474;2023-03-01T01:32:26;16.53;;;11.40;;
12906;SDS011;6521;50.498;8.474;2023-03-01T01:34:56;17.60;;;10.73;;
12906;SDS011;6521;50.498;8.474;2023-03-01T01:37:27;19.47;;;11.73;;
12906;SDS011;6521;50.498;8.474;2023-03-01T01:40:02;20.20;;;11.77;;
12906;SDS011;6521;50.498;8.474;2023-03-01T01:42:36;15.77;;;10.87;;
12906;SDS011;6521;50.498;8.474;2023-03-01T01:47:59;16.73;;;10.80;;
12906;SDS011;6521;50.498;8.474;2023-03-01T01:50:34;18.07;;;11.43;;
12906;SDS011;6521;50.498;8.474;2023-03-01T01:53:10;17.77;;;11.07;;
12906;SDS011;6521;50.498;8.474;2023-03-01T01:55:45;15.80;;;11.13;;
12906;SDS011;6521;50.498;8.474;2023-03-01T01:58:20;15.63;;;11.27;;
12906;SDS011;6521;50.498;8.474;2023-03-01T02:00:52;18.50;;;11.90;;
12906;SDS011;6521;50.498;8.474;2023-03-01T02:03:25;15.97;;;10.47;;
12906;SDS011;6521;50.498;8.474;2023-03-01T02:09:16;14.50;;;10.80;;
12906;SDS011;6521;50.498;8.474;2023-03-01T02:11:49;16.17;;;11.50;;
12906;SDS011;6521;50.498;8.474;2023-03-01T02:14:21;18.90;;;11.83;;
12906;SDS011;6521;50.498;8.474;2023-03-01T02:16:52;15.33;;;11.30;;
12906;SDS011;6521;50.498;8.474;2023-03-01T02:19:26;17.30;;;11.33;;
12906;SDS011;6521;50.498;8.474;2023-03-01T02:22:25;19.93;;;12.20;;
12906;SDS011;6521;50.498;8.474;2023-03-01T02:25:12;19.40;;;11.70;;
12906;SDS011;6521;50.498;8.474;2023-03-01T02:30:20;18.70;;;12.17;;
12906;SDS011;6521;50.498;8.474;2023-03-01T02:32:52;18.70;;;12.57;;
12906;SDS011;6521;50.498;8.474;2023-03-01T02:35:31;19.10;;;12.93;;
12906;SDS011;6521;50.498;8.474;2023-03-01T02:38:06;20.33;;;12.63;;
12906;SDS011;6521;50.498;8.474;2023-03-01T02:40:39;18.20;;;11.80;;
12906;SDS011;6521;50.498;8.474;2023-03-01T02:43:11;20.10;;;12.63;;
12906;SDS011;6521;50.498;8.474;2023-03-01T02:45:51;15.63;;;11.27;;
12906;SDS011;6521;50.498;8.474;2023-03-01T02:48:23;18.27;;;12.27;;
12906;SDS011;6521;50.498;8.474;2023-03-01T02:51:04;19.20;;;12.43;;
12906;SDS011;6521;50.498;8.474;2023-03-01T02:56:51;15.17;;;10.87;;
12906;SDS011;6521;50.498;8.474;2023-03-01T02:59:29;21.97;;;12.80;;
12906;SDS011;6521;50.498;8.474;2023-03-01T03:02:02;20.63;;;11.57;;
12906;SDS011;6521;50.498;8.474;2023-03-01T03:04:33;22.53;;;11.60;;
12906;SDS011;6521;50.498;8.474;2023-03-01T03:07:04;19.77;;;12.13;;
12906;SDS011;6521;50.498;8.474;2023-03-01T03:09:35;17.57;;;11.80;;
12906;SDS011;6521;50.498;8.474;2023-03-01T03:12:06;16.13;;;11.93;;
12906;SDS011;6521;50.498;8.474;2023-03-01T03:14:37;18.60;;;11.60;;
12906;SDS011;6521;50.498;8.474;2023-03-01T03:17:07;17.97;;;12.27;;
12906;SDS011;6521;50.498;8.474;2023-03-01T03:19:38;15.70;;;11.97;;
12906;SDS011;6521;50.498;8.474;2023-03-01T03:22:09;19.17;;;12.47;;
12906;SDS011;6521;50.498;8.474;2023-03-01T03:24:40;17.33;;;11.57;;
12906;SDS011;6521;50.498;8.474;2023-03-01T03:27:10;18.27;;;11.57;;
12906;SDS011;6521;50.498;8.474;2023-03-01T03:29:42;18.50;;;12.00;;
12906;SDS011;6521;50.498;8.474;2023-03-01T03:32:12;21.10;;;13.00;;
12906;SDS011;6521;50.498;8.474;2023-03-01T03:34:43;17.83;;;11.90;;
12906;SDS011;6521;50.498;8.474;2023-03-01T03:37:14;15.90;;;12.03;;
12906;SDS011;6521;50.498;8.474;2023-03-01T03:40:05;18.90;;;12.60;;
12906;SDS011;6521;50.498;8.474;2023-03-01T03:42:45;19.60;;;11.20;;
12906;SDS011;6521;50.498;8.474;2023-03-01T03:45:16;22.13;;;13.23;;
12906;SDS011;6521;50.498;8.474;2023-03-01T03:47:47;17.87;;;12.40;;
12906;SDS011;6521;50.498;8.474;2023-03-01T03:50:18;19.47;;;12.30;;
12906;SDS011;6521;50.498;8.474;2023-03-01T03:52:49;19.20;;;11.93;;
12906;SDS011;6521;50.498;8.474;2023-03-01T03:55:20;17.27;;;11.73;;
12906;SDS011;6521;50.498;8.474;2023-03-01T03:57:50;17.87;;;12.90;;
12906;SDS011;6521;50.498;8.474;2023-03-01T04:00:22;16.77;;;11.80;;
12906;SDS011;6521;50.498;8.474;2023-03-01T04:02:54;20.77;;;11.93;;
12906;SDS011;6521;50.498;8.474;2023-03-01T04:05:28;21.13;;;12.57;;
12906;SDS011;6521;50.498;8.474;2023-03-01T04:07:59;17.50;;;12.40;;
12906;SDS011;6521;50.498;8.474;2023-03-01T04:10:37;17.70;;;10.87;;
12906;SDS011;6521;50.498;8.474;2023-03-01T04:13:10;20.40;;;11.93;;
12906;SDS011;6521;50.498;8.474;2023-03-01T04:15:42;14.60;;;11.40;;
12906;SDS011;6521;50.498;8.474;2023-03-01T04:18:14;18.73;;;11.87;;
12906;SDS011;6521;50.498;8.474;2023-03-01T04:20:46;17.27;;;12.23;;
12906;SDS011;6521;50.498;8.474;2023-03-01T04:23:18;17.73;;;11.80;;
12906;SDS011;6521;50.498;8.474;2023-03-01T04:25:51;18.30;;;12.40;;
12906;SDS011;6521;50.498;8.474;2023-03-01T04:28:28;18.23;;;12.37;;
12906;SDS011;6521;50.498;8.474;2023-03-01T04:31:05;17.80;;;11.53;;
12906;SDS011;6521;50.498;8.474;2023-03-01T04:33:44;18.70;;;12.83;;
12906;SDS011;6521;50.498;8.474;2023-03-01T04:36:26;20.33;;;12.57;;
12906;SDS011;6521;50.498;8.474;2023-03-01T04:38:58;17.37;;;11.93;;
12906;SDS011;6521;50.498;8.474;2023-03-01T04:41:29;16.10;;;11.87;;
12906;SDS011;6521;50.498;8.474;2023-03-01T04:44:00;18.87;;;12.17;;
12906;SDS011;6521;50.498;8.474;2023-03-01T04:46:31;24.30;;;13.83;;
12906;SDS011;6521;50.498;8.474;2023-03-01T04:49:02;18.67;;;11.73;;
12906;SDS011;6521;50.498;8.474;2023-03-01T04:51:33;18.90;;;12.50;;
12906;SDS011;6521;50.498;8.474;2023-03-01T04:54:04;21.93;;;13.07;;
12906;SDS011;6521;50.498;8.474;2023-03-01T04:56:39;19.10;;;12.40;;
12906;SDS011;6521;50.498;8.474;2023-03-01T04:59:09;20.77;;;12.30;;
12906;SDS011;6521;50.498;8.474;2023-03-01T05:01:42;22.97;;;13.63;;
12906;SDS011;6521;50.498;8.474;2023-03-01T05:04:13;23.83;;;12.97;;
12906;SDS011;6521;50.498;8.474;2023-03-01T05:06:44;20.37;;;13.00;;
12906;SDS011;6521;50.498;8.474;2023-03-01T05:09:15;21.00;;;13.87;;
12906;SDS011;6521;50.498;8.474;2023-03-01T05:11:45;21.10;;;12.37;;
12906;SDS011;6521;50.498;8.474;2023-03-01T05:14:16;22.67;;;14.33;;
12906;SDS011;6521;50.498;8.474;2023-03-01T05:16:47;19.40;;;12.67;;
12906;SDS011;6521;50.498;8.474;2023-03-01T05:19:18;18.93;;;12.17;;
12906;SDS011;6521;50.498;8.474;2023-03-01T05:21:53;17.33;;;12.03;;
12906;SDS011;6521;50.498;8.474;2023-03-01T05:24:34;20.03;;;13.10;;
12906;SDS011;6521;50.498;8.474;2023-03-01T05:27:06;18.80;;;12.53;;
12906;SDS011;6521;50.498;8.474;2023-03-01T05:29:36;22.30;;;13.13;;
12906;SDS011;6521;50.498;8.474;2023-03-01T05:32:09;21.47;;;13.10;;
12906;SDS011;6521;50.498;8.474;2023-03-01T05:34:45;22.27;;;12.27;;
12906;SDS011;6521;50.498;8.474;2023-03-01T05:37:16;19.87;;;13.00;;
12906;SDS011;6521;50.498;8.474;2023-03-01T05:39:47;19.43;;;12.50;;
12906;SDS011;6521;50.498;8.474;2023-03-01T05:42:20;22.80;;;12.93;;
12906;SDS011;6521;50.498;8.474;2023-03-01T05:44:51;17.33;;;12.20;;
12906;SDS011;6521;50.498;8.474;2023-03-01T05:47:22;22.60;;;13.77;;
12906;SDS011;6521;50.498;8.474;2023-03-01T05:49:53;22.67;;;12.73;;
12906;SDS011;6521;50.498;8.474;2023-03-01T05:52:24;21.03;;;13.10;;
12906;SDS011;6521;50.498;8.474;2023-03-01T05:54:55;19.73;;;13.80;;
12906;SDS011;6521;50.498;8.474;2023-03-01T05:57:27;24.13;;;13.27;;
12906;SDS011;6521;50.498;8.474;2023-03-01T05:59:58;21.17;;;13.00;;
12906;SDS011;6521;50.498;8.474;2023-03-01T06:02:29;22.97;;;12.27;;
12906;SDS011;6521;50.498;8.474;2023-03-01T06:05:00;26.23;;;13.40;;
12906;SDS011;6521;50.498;8.474;2023-03-01T06:07:31;20.13;;;12.80;;
12906;SDS011;6521;50.498;8.474;2023-03-01T06:10:02;22.07;;;13.83;;
12906;SDS011;6521;50.498;8.474;2023-03-01T06:12:35;21.10;;;13.03;;
12906;SDS011;6521;50.498;8.474;2023-03-01T06:15:07;26.27;;;14.13;;
12906;SDS011;6521;50.498;8.474;2023-03-01T06:17:41;20.13;;;13.40;;
12906;SDS011;6521;50.498;8.474;2023-03-01T06:20:17;22.93;;;13.60;;
12906;SDS011;6521;50.498;8.474;2023-03-01T06:22:50;25.67;;;14.67;;
12906;SDS011;6521;50.498;8.474;2023-03-01T06:25:22;22.90;;;13.30;;
12906;SDS011;6521;50.498;8.474;2023-03-01T06:27:54;22.30;;;13.93;;
12906;SDS011;6521;50.498;8.474;2023-03-01T06:30:25;22.23;;;13.50;;
12906;SDS011;6521;50.498;8.474;2023-03-01T06:32:56;22.83;;;13.67;;
12906;SDS011;6521;50.498;8.474;2023-03-01T06:35:31;22.37;;;13.37;;
12906;SDS011;6521;50.498;8.474;2023-03-01T06:38:02;27.27;;;14.30;;
12906;SDS011;6521;50.498;8.474;2023-03-01T06:40:34;26.47;;;13.93;;
12906;SDS011;6521;50.498;8.474;2023-03-01T06:43:05;27.73;;;14.73;;
12906;SDS011;6521;50.498;8.474;2023-03-01T06:45:37;26.83;;;13.70;;
12906;SDS011;6521;50.498;8.474;2023-03-01T06:48:08;21.33;;;13.27;;
12906;SDS011;6521;50.498;8.474;2023-03-01T06:50:39;25.80;;;13.90;;
12906;SDS011;6521;50.498;8.474;2023-03-01T06:53:10;25.63;;;13.43;;
12906;SDS011;6521;50.498;8.474;2023-03-01T06:55:41;33.67;;;15.20;;
12906;SDS011;6521;50.498;8.474;2023-03-01T06:58:12;26.07;;;15.07;;
12906;SDS011;6521;50.498;8.474;2023-03-01T07:00:42;28.77;;;14.50;;
12906;SDS011;6521;50.498;8.474;2023-03-01T07:03:14;24.73;;;14.37;;
12906;SDS011;6521;50.498;8.474;2023-03-01T07:05:45;29.20;;;13.30;;
12906;SDS011;6521;50.498;8.474;2023-03-01T07:08:18;24.77;;;14.20;;
12906;SDS011;6521;50.498;8.474;2023-03-01T07:10:57;21.50;;;13.43;;
12906;SDS011;6521;50.498;8.474;2023-03-01T07:13:28;21.17;;;13.10;;
12906;SDS011;6521;50.498;8.474;2023-03-01T07:15:59;24.60;;;14.47;;
12906;SDS011;6521;50.498;8.474;2023-03-01T07:18:30;26.53;;;15.53;;
12906;SDS011;6521;50.498;8.474;2023-03-01T07:21:05;19.23;;;13.03;;
12906;SDS011;6521;50.498;8.474;2023-03-01T07:23:41;26.07;;;14.70;;
12906;SDS011;6521;50.498;8.474;2023-03-01T07:26:11;24.40;;;14.30;;
12906;SDS011;6521;50.498;8.474;2023-03-01T07:28:42;26.53;;;14.20;;
12906;SDS011;6521;50.498;8.474;2023-03-01T07:31:13;23.17;;;13.80;;
12906;SDS011;6521;50.498;8.474;2023-03-01T07:33:44;22.70;;;14.47;;
12906;SDS011;6521;50.498;8.474;2023-03-01T07:36:15;24.60;;;14.47;;
12906;SDS011;6521;50.498;8.474;2023-03-01T07:38:46;22.37;;;13.30;;
12906;SDS011;6521;50.498;8.474;2023-03-01T07:41:17;21.67;;;13.70;;
12906;SDS011;6521;50.498;8.474;2023-03-01T07:43:48;23.47;;;13.37;;
12906;SDS011;6521;50.498;8.474;2023-03-01T07:46:18;24.10;;;15.07;;
12906;SDS011;6521;50.498;8.474;2023-03-01T07:48:49;20.07;;;13.63;;
12906;SDS011;6521;50.498;8.474;2023-03-01T07:51:20;28.77;;;13.80;;
12906;SDS011;6521;50.498;8.474;2023-03-01T07:53:53;24.43;;;13.97;;
12906;SDS011;6521;50.498;8.474;2023-03-01T07:56:24;23.77;;;13.47;;
12906;SDS011;6521;50.498;8.474;2023-03-01T07:58:55;23.27;;;14.07;;
12906;SDS011;6521;50.498;8.474;2023-03-01T08:01:26;23.80;;;13.83;;
12906;SDS011;6521;50.498;8.474;2023-03-01T08:03:57;25.43;;;13.97;;
12906;SDS011;6521;50.498;8.474;2023-03-01T08:06:27;27.43;;;14.17;;
12906;SDS011;6521;50.498;8.474;2023-03-01T08:08:58;22.40;;;14.13;;
12906;SDS011;6521;50.498;8.474;2023-03-01T08:11:29;22.63;;;14.50;;
12906;SDS011;6521;50.498;8.474;2023-03-01T08:14:00;24.33;;;13.60;;
12906;SDS011;6521;50.498;8.474;2023-03-01T08:16:30;24.20;;;14.00;;
12906;SDS011;6521;50.498;8.474;2023-03-01T08:19:03;18.77;;;13.00;;
12906;SDS011;6521;50.498;8.474;2023-03-01T08:21:38;21.53;;;13.80;;
12906;SDS011;6521;50.498;8.474;2023-03-01T08:24:09;20.53;;;12.83;;
12906;SDS011;6521;50.498;8.474;2023-03-01T08:26:40;21.57;;;13.30;;
12906;SDS011;6521;50.498;8.474;2023-03-01T08:29:11;18.77;;;12.53;;
12906;SDS011;6521;50.498;8.474;2023-03-01T08:31:42;20.53;;;13.90;;
12906;SDS011;6521;50.498;8.474;2023-03-01T08:34:14;18.13;;;12.60;;
12906;SDS011;6521;50.498;8.474;2023-03-01T08:36:46;18.83;;;12.63;;
12906;SDS011;6521;50.498;8.474;2023-03-01T08:39:18;19.43;;;12.97;;
12906;SDS011;6521;50.498;8.474;2023-03-01T08:41:50;17.53;;;12.73;;
12906;SDS011;6521;50.498;8.474;2023-03-01T08:44:21;27.47;;;12.60;;
12906;SDS011;6521;50.498;8.474;2023-03-01T08:46:52;20.47;;;12.70;;
12906;SDS011;6521;50.498;8.474;2023-03-01T08:49:25;23.57;;;12.13;;
12906;SDS011;6521;50.498;8.474;2023-03-01T08:51:55;23.23;;;12.20;;
12906;SDS011;6521;50.498;8.474;2023-03-01T08:54:26;18.90;;;12.77;;
12906;SDS011;6521;50.498;8.474;2023-03-01T08:56:57;16.57;;;11.83;;
12906;SDS011;6521;50.498;8.474;2023-03-01T08:59:29;16.83;;;12.30;;
12906;SDS011;6521;50.498;8.474;2023-03-01T09:02:00;17.80;;;12.53;;
12906;SDS011;6521;50.498;8.474;2023-03-01T09:04:30;18.17;;;12.37;;
12906;SDS011;6521;50.498;8.474;2023-03-01T09:07:01;21.00;;;11.97;;
12906;SDS011;6521;50.498;8.474;2023-03-01T09:09:32;18.53;;;12.60;;
12906;SDS011;6521;50.498;8.474;2023-03-01T09:12:03;18.37;;;12.63;;
12906;SDS011;6521;50.498;8.474;2023-03-01T09:14:34;17.13;;;11.80;;
12906;SDS011;6521;50.498;8.474;2023-03-01T09:17:07;22.97;;;12.47;;
12906;SDS011;6521;50.498;8.474;2023-03-01T09:19:38;15.47;;;11.50;;
12906;SDS011;6521;50.498;8.474;2023-03-01T09:22:08;19.23;;;11.73;;
12906;SDS011;6521;50.498;8.474;2023-03-01T09:24:39;16.47;;;11.50;;
12906;SDS011;6521;50.498;8.474;2023-03-01T09:27:10;16.57;;;11.20;;
12906;SDS011;6521;50.498;8.474;2023-03-01T09:29:43;15.63;;;11.13;;
12906;SDS011;6521;50.498;8.474;2023-03-01T09:32:14;15.10;;;10.57;;
12906;SDS011;6521;50.498;8.474;2023-03-01T09:34:44;15.43;;;10.87;;
12906;SDS011;6521;50.498;8.474;2023-03-01T09:37:34;17.00;;;11.07;;
12906;SDS011;6521;50.498;8.474;2023-03-01T09:40:06;14.63;;;10.30;;
12906;SDS011;6521;50.498;8.474;2023-03-01T09:42:51;15.67;;;11.30;;
12906;SDS011;6521;50.498;8.474;2023-03-01T09:45:33;16.13;;;10.27;;
12906;SDS011;6521;50.498;8.474;2023-03-01T09:48:06;14.83;;;10.73;;
12906;SDS011;6521;50.498;8.474;2023-03-01T09:50:45;18.17;;;11.03;;
12906;SDS011;6521;50.498;8.474;2023-03-01T09:53:23;15.50;;;10.40;;
12906;SDS011;6521;50.498;8.474;2023-03-01T10:01:54;16.80;;;10.50;;
12906;SDS011;6521;50.498;8.474;2023-03-01T10:10:07;13.33;;;9.83;;
12906;SDS011;6521;50.498;8.474;2023-03-01T10:12:53;13.87;;;10.27;;
12906;SDS011;6521;50.498;8.474;2023-03-01T10:15:37;13.13;;;9.30;;
12906;SDS011;6521;50.498;8.474;2023-03-01T10:18:16;13.53;;;9.80;;
12906;SDS011;6521;50.498;8.474;2023-03-01T10:21:01;14.03;;;9.53;;
12906;SDS011;6521;50.498;8.474;2023-03-01T10:23:36;13.63;;;9.83;;
12906;SDS011;6521;50.498;8.474;2023-03-01T10:29:11;14.27;;;9.20;;
12906;SDS011;6521;50.498;8.474;2023-03-01T10:31:44;13.87;;;9.13;;
12906;SDS011;6521;50.498;8.474;2023-03-01T10:34:18;13.43;;;9.50;;
12906;SDS011;6521;50.498;8.474;2023-03-01T10:36:59;13.97;;;9.20;;
12906;SDS011;6521;50.498;8.474;2023-03-01T10:42:46;16.50;;;9.20;;
12906;SDS011;6521;50.498;8.474;2023-03-01T10:50:46;11.43;;;8.57;;
12906;SDS011;6521;50.498;8.474;2023-03-01T10:53:26;11.67;;;9.10;;
12906;SDS011;6521;50.498;8.474;2023-03-01T10:58:34;12.17;;;9.10;;
12906;SDS011;6521;50.498;8.474;2023-03-01T11:03:55;14.60;;;9.10;;
12906;SDS011;6521;50.498;8.474;2023-03-01T11:06:41;17.30;;;9.63;;
12906;SDS011;6521;50.498;8.474;2023-03-01T11:09:19;11.93;;;9.33;;
12906;SDS011;6521;50.498;8.474;2023-03-01T11:11:55;16.07;;;9.27;;
12906;SDS011;6521;50.498;8.474;2023-03-01T11:14:30;12.83;;;9.43;;
12906;SDS011;6521;50.498;8.474;2023-03-01T11:17:12;12.43;;;8.33;;
12906;SDS011;6521;50.498;8.474;2023-03-01T11:23:10;11.73;;;8.93;;
12906;SDS011;6521;50.498;8.474;2023-03-01T11:25:46;11.30;;;9.50;;
12906;SDS011;6521;50.498;8.474;2023-03-01T11:28:22;11.80;;;9.47;;
12906;SDS011;6521;50.498;8.474;2023-03-01T11:30:57;13.53;;;9.03;;
12906;SDS011;6521;50.498;8.474;2023-03-01T11:39:47;12.23;;;9.37;;
12906;SDS011;6521;50.498;8.474;2023-03-01T11:42:02;14.17;;;9.30;;
12906;SDS011;6521;50.498;8.474;2023-03-01T11:44:35;14.20;;;9.17;;
12906;SDS011;6521;50.498;8.474;2023-03-01T11:47:13;11.50;;;9.57;;
12906;SDS011;6521;50.498;8.474;2023-03-01T11:50:01;13.90;;;9.40;;
12906;SDS011;6521;50.498;8.474;2023-03-01T12:01:40;16.47;;;9.07;;
12906;SDS011;6521;50.498;8.474;2023-03-01T12:26:34;18.77;;;10.67;;
12906;SDS011;6521;50.498;8.474;2023-03-01T12:29:27;12.07;;;9.17;;
12906;SDS011;6521;50.498;8.474;2023-03-01T12:32:09;14.90;;;9.83;;
12906;SDS011;6521;50.498;8.474;2023-03-01T12:40:58;11.63;;;8.87;;
12906;SDS011;6521;50.498;8.474;2023-03-01T12:43:51;13.87;;;9.10;;
12906;SDS011;6521;50.498;8.474;2023-03-01T12:46:51;12.70;;;8.63;;
12906;SDS011;6521;50.498;8.474;2023-03-01T12:49:49;15.10;;;8.53;;
12906;SDS011;6521;50.498;8.474;2023-03-01T12:58:02;13.57;;;9.70;;
12906;SDS011;6521;50.498;8.474;2023-03-01T13:00:45;11.40;;;8.70;;
12906;SDS011;6521;50.498;8.474;2023-03-01T13:03:23;12.27;;;8.73;;
12906;SDS011;6521;50.498;8.474;2023-03-01T13:06:02;10.27;;;8.67;;
12906;SDS011;6521;50.498;8.474;2023-03-01T13:11:23;16.57;;;9.50;;
12906;SDS011;6521;50.498;8.474;2023-03-01T13:16:53;14.47;;;8.30;;
12906;SDS011;6521;50.498;8.474;2023-03-01T13:19:25;13.53;;;9.10;;
12906;SDS011;6521;50.498;8.474;2023-03-01T13:22:24;12.87;;;8.20;;
12906;SDS011;6521;50.498;8.474;2023-03-01T13:25:17;11.27;;;8.10;;
12906;SDS011;6521;50.498;8.474;2023-03-01T13:27:50;12.43;;;8.47;;
12906;SDS011;6521;50.498;8.474;2023-03-01T13:35:57;9.90;;;7.97;;
12906;SDS011;6521;50.498;8.474;2023-03-01T13:41:14;13.63;;;8.30;;
12906;SDS011;6521;50.498;8.474;2023-03-01T13:43:48;8.97;;;7.87;;
12906;SDS011;6521;50.498;8.474;2023-03-01T13:46:21;14.63;;;9.37;;
12906;SDS011;6521;50.498;8.474;2023-03-01T13:48:55;9.47;;;7.87;;
12906;SDS011;6521;50.498;8.474;2023-03-01T13:51:27;12.77;;;8.63;;
12906;SDS011;6521;50.498;8.474;2023-03-01T13:53:59;11.20;;;9.03;;
12906;SDS011;6521;50.498;8.474;2023-03-01T13:56:35;12.67;;;8.67;;
12906;SDS011;6521;50.498;8.474;2023-03-01T13:59:18;9.17;;;7.93;;
12906;SDS011;6521;50.498;8.474;2023-03-01T14:01:52;14.43;;;8.13;;
12906;SDS011;6521;50.498;8.474;2023-03-01T14:04:31;11.73;;;8.53;;
12906;SDS011;6521;50.498;8.474;2023-03-01T14:07:10;13.03;;;8.73;;
12906;SDS011;6521;50.498;8.474;2023-03-01T14:09:44;12.40;;;8.23;;
12906;SDS011;6521;50.498;8.474;2023-03-01T14:15:15;22.20;;;9.10;;
12906;SDS011;6521;50.498;8.474;2023-03-01T14:20:45;13.57;;;7.67;;
12906;SDS011;6521;50.498;8.474;2023-03-01T14:23:22;13.10;;;7.60;;
12906;SDS011;6521;50.498;8.474;2023-03-01T14:25:54;10.50;;;7.77;;
12906;SDS011;6521;50.498;8.474;2023-03-01T14:28:27;11.77;;;8.43;;
12906;SDS011;6521;50.498;8.474;2023-03-01T14:31:00;10.50;;;7.53;;
12906;SDS011;6521;50.498;8.474;2023-03-01T14:33:35;11.23;;;7.93;;
12906;SDS011;6521;50.498;8.474;2023-03-01T14:36:08;11.50;;;8.97;;
12906;SDS011;6521;50.498;8.474;2023-03-01T14:38:41;10.47;;;7.43;;
12906;SDS011;6521;50.498;8.474;2023-03-01T14:41:18;10.60;;;7.37;;
12906;SDS011;6521;50.498;8.474;2023-03-01T14:46:32;15.27;;;7.53;;
12906;SDS011;6521;50.498;8.474;2023-03-01T14:49:09;13.40;;;7.33;;
12906;SDS011;6521;50.498;8.474;2023-03-01T14:52:00;14.57;;;7.77;;
12906;SDS011;6521;50.498;8.474;2023-03-01T14:54:40;10.27;;;6.90;;
12906;SDS011;6521;50.498;8.474;2023-03-01T14:57:17;9.87;;;8.03;;
12906;SDS011;6521;50.498;8.474;2023-03-01T14:59:52;8.67;;;6.47;;
12906;SDS011;6521;50.498;8.474;2023-03-01T15:02:26;12.73;;;7.53;;
12906;SDS011;6521;50.498;8.474;2023-03-01T15:05:00;9.47;;;6.70;;
12906;SDS011;6521;50.498;8.474;2023-03-01T15:07:38;15.33;;;6.53;;
12906;SDS011;6521;50.498;8.474;2023-03-01T15:10:21;9.77;;;7.10;;
12906;SDS011;6521;50.498;8.474;2023-03-01T15:12:54;9.63;;;6.93;;
12906;SDS011;6521;50.498;8.474;2023-03-01T15:17:59;9.03;;;7.17;;
12906;SDS011;6521;50.498;8.474;2023-03-01T15:20:51;13.13;;;7.37;;
12906;SDS011;6521;50.498;8.474;2023-03-01T15:23:24;9.40;;;6.03;;
12906;SDS011;6521;50.498;8.474;2023-03-01T15:25:57;12.10;;;6.90;;
12906;SDS011;6521;50.498;8.474;2023-03-01T15:28:29;15.27;;;6.70;;
12906;SDS011;6521;50.498;8.474;2023-03-01T15:33:49;10.03;;;6.30;;
12906;SDS011;6521;50.498;8.474;2023-03-01T15:36:36;11.00;;;5.50;;
12906;SDS011;6521;50.498;8.474;2023-03-01T15:47:48;8.63;;;6.17;;
12906;SDS011;6521;50.498;8.474;2023-03-01T15:50:30;13.53;;;6.23;;
12906;SDS011;6521;50.498;8.474;2023-03-01T15:53:13;39.83;;;8.07;;
12906;SDS011;6521;50.498;8.474;2023-03-01T15:55:45;11.60;;;6.43;;
12906;SDS011;6521;50.498;8.474;2023-03-01T15:58:23;15.20;;;6.50;;
12906;SDS011;6521;50.498;8.474;2023-03-01T16:00:54;10.27;;;5.50;;
12906;SDS011;6521;50.498;8.474;2023-03-01T16:03:29;10.30;;;6.00;;
12906;SDS011;6521;50.498;8.474;2023-03-01T16:05:59;9.67;;;6.47;;
12906;SDS011;6521;50.498;8.474;2023-03-01T16:08:31;9.43;;;6.13;;
12906;SDS011;6521;50.498;8.474;2023-03-01T16:11:02;9.10;;;6.27;;
12906;SDS011;6521;50.498;8.474;2023-03-01T16:13:36;12.47;;;7.07;;
12906;SDS011;6521;50.498;8.474;2023-03-01T16:16:07;9.93;;;6.53;;
12906;SDS011;6521;50.498;8.474;2023-03-01T16:18:43;8.67;;;5.87;;
12906;SDS011;6521;50.498;8.474;2023-03-01T16:21:16;11.70;;;6.67;;
12906;SDS011;6521;50.498;8.474;2023-03-01T16:23:51;7.97;;;6.20;;
12906;SDS011;6521;50.498;8.474;2023-03-01T16:26:22;9.10;;;6.20;;
12906;SDS011;6521;50.498;8.474;2023-03-01T16:28:56;28.43;;;6.97;;
12906;SDS011;6521;50.498;8.474;2023-03-01T16:31:27;10.37;;;6.23;;
12906;SDS011;6521;50.498;8.474;2023-03-01T16:33:59;13.90;;;6.77;;
12906;SDS011;6521;50.498;8.474;2023-03-01T16:36:30;8.80;;;6.17;;
12906;SDS011;6521;50.498;8.474;2023-03-01T16:39:00;8.87;;;6.37;;
12906;SDS011;6521;50.498;8.474;2023-03-01T16:41:32;11.80;;;6.67;;
12906;SDS011;6521;50.498;8.474;2023-03-01T16:44:03;8.37;;;5.60;;
12906;SDS011;6521;50.498;8.474;2023-03-01T16:46:34;23.10;;;5.97;;
12906;SDS011;6521;50.498;8.474;2023-03-01T16:49:05;10.83;;;6.70;;
12906;SDS011;6521;50.498;8.474;2023-03-01T16:51:36;15.07;;;6.63;;
12906;SDS011;6521;50.498;8.474;2023-03-01T16:54:07;10.70;;;5.97;;
12906;SDS011;6521;50.498;8.474;2023-03-01T16:56:39;9.77;;;6.43;;
12906;SDS011;6521;50.498;8.474;2023-03-01T16:59:09;9.53;;;6.50;;
12906;SDS011;6521;50.498;8.474;2023-03-01T17:01:40;23.17;;;6.80;;
12906;SDS011;6521;50.498;8.474;2023-03-01T17:04:11;12.93;;;6.27;;
12906;SDS011;6521;50.498;8.474;2023-03-01T17:06:42;16.67;;;7.20;;
12906;SDS011;6521;50.498;8.474;2023-03-01T17:09:13;11.10;;;6.97;;
12906;SDS011;6521;50.498;8.474;2023-03-01T17:11:44;8.73;;;6.37;;
12906;SDS011;6521;50.498;8.474;2023-03-01T17:14:15;12.63;;;6.80;;
12906;SDS011;6521;50.498;8.474;2023-03-01T17:16:47;13.17;;;6.57;;
12906;SDS011;6521;50.498;8.474;2023-03-01T17:19:18;8.50;;;6.33;;
12906;SDS011;6521;50.498;8.474;2023-03-01T17:21:49;11.80;;;6.23;;
12906;SDS011;6521;50.498;8.474;2023-03-01T17:24:20;10.03;;;7.17;;
12906;SDS011;6521;50.498;8.474;2023-03-01T17:26:51;10.77;;;5.90;;
12906;SDS011;6521;50.498;8.474;2023-03-01T17:29:21;7.93;;;5.73;;